LFBD 170830Z AUTO 28006KT 9999 -RA FEW021 SCT028 OVC070 10/09 Q1025 TEMPO 3000 RA BKN007

ElémentsDécodage
LFBD Station météo située sur l'aérodrome de BORDEAUX Mérignac
170830Z émis le 17 du mois à 08h30 UTC
AUTO Bulletin édité par un automate
28006KT vent du 280°, 06 noeuds
9999 visibilité horizontale supérieure à 10 Km
-RA faible pluie
FEW021 nuages rares (1/8 à 2/8) à 2100 pieds
SCT028 nuages épars (3/8 à 4/8) à 2800 pieds
OVC070 couverture nuageuse totale (8/8) à 7000 pieds
10/09 température 10°C, point de rosée 09°C
 soit une humidité relative de 94%
Q1025 la pression au niveau de la mer (QNH) est de 1025 hPa
TEMPO fluctuation temporaire prévue
3000 visibilité horizontale de 3000 mètres
RA pluie
BKN007 nuages morcelés (5/8 à 7/8) à 700 pieds